createdAt,value
2022-08-21T00:01:07.265Z,16.45
2022-08-21T00:03:42.020Z,15.75
2022-08-21T00:06:15.844Z,15.93
2022-08-21T00:08:46.531Z,17.02
2022-08-21T00:11:17.106Z,15.73
2022-08-21T00:13:47.226Z,14.93
2022-08-21T00:16:17.492Z,16.38
2022-08-21T00:18:47.927Z,15.10
2022-08-21T00:21:18.566Z,16.40
2022-08-21T00:23:48.589Z,18.02
2022-08-21T00:26:18.755Z,18.63
2022-08-21T00:28:51.293Z,18.58
2022-08-21T00:31:22.412Z,17.23
2022-08-21T00:33:52.917Z,19.00
2022-08-21T00:36:31.322Z,18.05
2022-08-21T00:39:01.934Z,12.23
2022-08-21T00:41:38.117Z,16.67
2022-08-21T00:44:11.393Z,16.40
2022-08-21T00:46:42.418Z,16.95
2022-08-21T00:49:14.062Z,17.55
2022-08-21T00:51:51.698Z,18.15
2022-08-21T00:54:24.715Z,18.63
2022-08-21T00:56:59.651Z,17.08
2022-08-21T00:59:32.037Z,17.70
2022-08-21T01:02:02.338Z,18.95
2022-08-21T01:04:32.784Z,17.20
2022-08-21T01:07:03.431Z,22.48
2022-08-21T01:09:33.527Z,17.15
2022-08-21T01:12:04.020Z,16.67
2022-08-21T01:14:34.433Z,19.30
2022-08-21T01:17:06.049Z,18.70
2022-08-21T01:19:36.884Z,19.63
2022-08-21T01:22:07.496Z,14.15
2022-08-21T01:24:37.648Z,15.65
2022-08-21T01:27:08.494Z,15.75
2022-08-21T01:29:46.135Z,17.08
2022-08-21T01:32:18.853Z,16.80
2022-08-21T01:34:50.849Z,19.20
2022-08-21T01:37:22.194Z,17.20
2022-08-21T01:39:52.313Z,17.25
2022-08-21T01:42:22.933Z,18.88
2022-08-21T01:44:54.719Z,17.33
2022-08-21T01:47:26.784Z,16.35
2022-08-21T01:49:57.543Z,15.93
2022-08-21T01:52:28.054Z,15.80
2022-08-21T01:54:58.489Z,15.13
2022-08-21T01:57:28.717Z,18.92
2022-08-21T01:59:59.424Z,15.80
2022-08-21T02:02:29.588Z,15.18
2022-08-21T02:05:00.079Z,13.93
2022-08-21T02:07:30.661Z,14.05
2022-08-21T02:10:01.233Z,13.50
2022-08-21T02:12:32.110Z,14.35
2022-08-21T02:15:03.071Z,14.18
2022-08-21T02:17:40.911Z,14.75
2022-08-21T02:20:12.198Z,12.98
2022-08-21T02:22:42.652Z,15.75
2022-08-21T02:25:13.221Z,14.57
2022-08-21T02:27:44.586Z,16.58
2022-08-21T02:30:16.604Z,17.63
2022-08-21T02:32:46.974Z,15.10
2022-08-21T02:35:18.069Z,12.63
2022-08-21T02:37:51.059Z,17.25
2022-08-21T02:40:23.912Z,15.95
2022-08-21T02:42:54.677Z,15.20
2022-08-21T02:45:24.907Z,14.75
2022-08-21T02:47:56.584Z,14.32
2022-08-21T02:50:31.996Z,14.20
2022-08-21T02:53:02.463Z,18.70
2022-08-21T02:55:33.680Z,15.30
2022-08-21T02:58:04.312Z,16.73
2022-08-21T03:00:35.451Z,15.27
2022-08-21T03:03:06.109Z,15.95
2022-08-21T03:05:37.734Z,17.38
2022-08-21T03:08:11.893Z,16.17
2022-08-21T03:10:43.199Z,15.75
2022-08-21T03:13:14.060Z,17.60
2022-08-21T03:15:45.133Z,14.77
2022-08-21T03:18:15.777Z,15.75
2022-08-21T03:20:47.675Z,17.48
2022-08-21T03:23:19.760Z,18.27
2022-08-21T03:25:50.958Z,19.52
2022-08-21T03:28:23.895Z,21.48
2022-08-21T03:30:54.835Z,20.63
2022-08-21T03:33:25.900Z,18.85
2022-08-21T03:36:05.160Z,19.52
2022-08-21T03:38:36.306Z,19.67
2022-08-21T03:41:10.402Z,19.88
2022-08-21T03:43:41.051Z,17.80
2022-08-21T03:46:11.994Z,17.13
2022-08-21T03:48:42.655Z,16.25
2022-08-21T03:51:12.815Z,16.88
2022-08-21T03:53:42.808Z,17.38
2022-08-21T03:56:13.205Z,17.38
2022-08-21T03:58:43.961Z,20.77
2022-08-21T04:01:15.119Z,18.50
2022-08-21T04:03:45.457Z,16.15
2022-08-21T04:06:16.126Z,42.33
2022-08-21T04:08:47.013Z,55.08
2022-08-21T04:11:17.551Z,51.65
2022-08-21T04:13:47.928Z,35.28
2022-08-21T04:16:18.288Z,33.97
2022-08-21T04:18:48.778Z,26.73
2022-08-21T04:21:20.040Z,18.95
2022-08-21T04:23:54.802Z,29.80
2022-08-21T04:26:26.709Z,27.85
2022-08-21T04:28:59.845Z,27.55
2022-08-21T04:31:31.177Z,17.45
2022-08-21T04:34:01.546Z,13.20
2022-08-21T04:36:32.137Z,18.40
2022-08-21T04:39:03.565Z,11.77
2022-08-21T04:41:35.193Z,11.88
2022-08-21T04:44:06.730Z,11.43
2022-08-21T04:46:37.244Z,10.90
2022-08-21T04:49:07.706Z,10.85
2022-08-21T04:51:39.559Z,25.33
2022-08-21T04:54:17.060Z,25.77
2022-08-21T04:56:51.164Z,23.80
2022-08-21T04:59:24.455Z,11.50
2022-08-21T05:01:56.614Z,13.10
2022-08-21T05:04:28.455Z,9.40
2022-08-21T05:07:00.173Z,12.20
2022-08-21T05:09:31.716Z,13.30
2022-08-21T05:12:02.150Z,8.43
2022-08-21T05:14:32.525Z,11.85
2022-08-21T05:17:03.384Z,8.43
2022-08-21T05:19:33.482Z,13.07
2022-08-21T05:22:03.545Z,11.43
2022-08-21T05:24:33.974Z,12.50
2022-08-21T05:27:06.022Z,10.18
2022-08-21T05:29:36.255Z,12.25
2022-08-21T05:32:12.527Z,11.45
2022-08-21T05:34:42.712Z,11.57
2022-08-21T05:37:14.573Z,11.20
2022-08-21T05:40:04.760Z,10.25
2022-08-21T05:42:35.822Z,13.18
2022-08-21T05:45:07.773Z,12.13
2022-08-21T05:47:38.994Z,12.35
2022-08-21T05:50:12.831Z,12.65
2022-08-21T05:52:45.419Z,14.35
2022-08-21T05:55:16.019Z,13.40
2022-08-21T05:57:46.131Z,11.75
2022-08-21T06:00:16.684Z,14.85
2022-08-21T06:02:47.218Z,13.63
2022-08-21T06:05:35.846Z,15.10
2022-08-21T06:08:08.249Z,13.02
2022-08-21T06:10:39.173Z,11.32
2022-08-21T06:13:09.626Z,12.35
2022-08-21T06:15:39.706Z,15.05
2022-08-21T06:18:09.983Z,11.68
2022-08-21T06:20:41.000Z,9.05
2022-08-21T06:23:11.603Z,12.73
2022-08-21T06:25:42.386Z,12.95
2022-08-21T06:28:13.598Z,11.55
2022-08-21T06:30:43.951Z,9.98
2022-08-21T06:33:14.038Z,11.68
2022-08-21T06:35:48.331Z,10.43
2022-08-21T06:38:18.859Z,13.13
2022-08-21T06:40:50.139Z,11.05
2022-08-21T06:43:21.329Z,14.82
2022-08-21T06:46:01.176Z,11.32
2022-08-21T06:48:33.454Z,15.50
2022-08-21T06:51:04.212Z,11.60
2022-08-21T06:53:35.049Z,17.45
2022-08-21T06:56:05.955Z,16.30
2022-08-21T06:58:36.381Z,11.70
2022-08-21T07:01:07.140Z,11.73
2022-08-21T07:03:39.724Z,11.90
2022-08-21T07:06:11.886Z,11.95
2022-08-21T07:08:41.998Z,9.02
2022-08-21T07:11:21.832Z,11.32
2022-08-21T07:13:54.274Z,7.57
2022-08-21T07:16:24.985Z,11.02
2022-08-21T07:18:55.335Z,12.68
2022-08-21T07:21:28.333Z,10.95
2022-08-21T07:24:00.295Z,10.73
2022-08-21T07:26:30.486Z,10.40
2022-08-21T07:29:00.781Z,7.13
2022-08-21T07:31:31.984Z,4.93
2022-08-21T07:34:02.815Z,8.98
2022-08-21T07:36:33.460Z,7.32
2022-08-21T07:39:05.329Z,7.00
2022-08-21T07:41:37.970Z,8.52
2022-08-21T07:44:08.063Z,7.43
2022-08-21T07:46:38.928Z,9.07
2022-08-21T07:49:09.515Z,9.27
2022-08-21T07:51:43.350Z,8.32
2022-08-21T07:54:17.069Z,7.55
2022-08-21T07:56:48.213Z,11.10
2022-08-21T07:59:18.357Z,9.20
2022-08-21T08:01:49.364Z,9.38
2022-08-21T08:04:23.254Z,9.70
2022-08-21T08:06:56.480Z,9.50
2022-08-21T08:09:27.321Z,14.30
2022-08-21T08:11:57.875Z,16.98
2022-08-21T08:14:31.364Z,9.32
2022-08-21T08:17:02.214Z,12.75
2022-08-21T08:19:33.165Z,12.57
2022-08-21T08:22:04.334Z,9.52
2022-08-21T08:24:34.743Z,11.45
2022-08-21T08:27:05.187Z,9.15
2022-08-21T08:29:35.371Z,17.48
2022-08-21T08:32:06.605Z,11.15
2022-08-21T08:34:37.901Z,9.15
2022-08-21T08:37:09.404Z,9.85
2022-08-21T08:39:40.504Z,14.27
2022-08-21T08:42:33.752Z,10.85
2022-08-21T08:45:08.755Z,10.63
2022-08-21T08:47:41.057Z,13.07
2022-08-21T08:50:17.300Z,13.00
2022-08-21T08:52:52.459Z,11.70
2022-08-21T08:55:27.237Z,11.05
2022-08-21T08:57:58.497Z,11.75
2022-08-21T09:00:28.732Z,10.43
2022-08-21T09:03:01.355Z,12.50
2022-08-21T09:05:51.643Z,14.27
2022-08-21T09:08:41.910Z,13.50
2022-08-21T09:11:31.626Z,13.10
2022-08-21T09:14:12.429Z,9.95
2022-08-21T09:16:50.562Z,15.00
2022-08-21T09:19:42.121Z,14.10
2022-08-21T09:22:32.783Z,13.20
2022-08-21T09:25:10.363Z,11.68
2022-08-21T09:27:41.124Z,12.07
2022-08-21T09:30:12.557Z,15.95
2022-08-21T09:32:43.916Z,15.25
2022-08-21T09:35:19.529Z,13.88
2022-08-21T09:38:09.857Z,22.35
2022-08-21T09:40:50.383Z,14.95
2022-08-21T09:43:23.958Z,17.25
2022-08-21T09:46:05.214Z,13.55
2022-08-21T09:48:42.963Z,13.02
2022-08-21T09:51:17.096Z,14.77
2022-08-21T09:53:49.307Z,16.48
2022-08-21T09:56:49.606Z,13.55
2022-08-21T09:59:37.384Z,14.60
2022-08-21T10:02:27.382Z,20.75
2022-08-21T10:04:59.500Z,13.27
2022-08-21T10:07:32.047Z,18.95
2022-08-21T10:10:03.765Z,15.93
2022-08-21T10:12:43.057Z,12.93
2022-08-21T10:15:32.830Z,12.45
2022-08-21T10:18:10.843Z,11.43
2022-08-21T10:20:51.161Z,13.85
2022-08-21T10:23:33.255Z,16.30
2022-08-21T10:26:24.833Z,14.35
2022-08-21T10:29:14.514Z,19.33
2022-08-21T10:32:05.034Z,13.60
2022-08-21T10:35:07.620Z,13.93
2022-08-21T10:37:49.809Z,17.48
2022-08-21T10:40:40.051Z,16.15
2022-08-21T10:43:29.760Z,18.35
2022-08-21T10:46:20.172Z,12.50
2022-08-21T10:49:09.889Z,15.57
2022-08-21T10:51:45.557Z,12.75
2022-08-21T10:54:35.342Z,14.35
2022-08-21T10:57:09.489Z,15.13
2022-08-21T10:59:50.135Z,14.23
2022-08-21T11:02:31.815Z,15.07
2022-08-21T11:05:21.907Z,12.85
2022-08-21T11:07:55.300Z,12.88
2022-08-21T11:10:29.368Z,12.52
2022-08-21T11:13:10.821Z,16.52
2022-08-21T11:15:47.159Z,16.10
2022-08-21T11:18:37.276Z,13.73
2022-08-21T11:21:27.376Z,15.88
2022-08-21T11:24:07.358Z,15.13
2022-08-21T11:26:47.162Z,16.17
2022-08-21T11:29:27.508Z,25.38
2022-08-21T11:32:06.334Z,28.65
2022-08-21T11:34:51.920Z,22.25
2022-08-21T11:37:27.348Z,26.92
2022-08-21T11:40:17.444Z,18.67
2022-08-21T11:42:57.272Z,14.43
2022-08-21T11:45:41.005Z,14.32
2022-08-21T11:48:18.168Z,18.27
2022-08-21T11:50:48.981Z,14.05
2022-08-21T11:53:27.539Z,20.63
2022-08-21T11:56:06.019Z,16.30
2022-08-21T11:58:42.417Z,18.52
2022-08-21T12:01:15.516Z,18.80
2022-08-21T12:03:54.994Z,21.90
2022-08-21T12:06:33.212Z,20.55
2022-08-21T12:09:05.558Z,21.52
2022-08-21T12:11:47.119Z,18.20
2022-08-21T12:14:19.729Z,19.10
2022-08-21T12:16:53.184Z,13.48
2022-08-21T12:19:39.022Z,14.25
2022-08-21T12:22:14.207Z,14.95
2022-08-21T12:24:56.690Z,21.75
2022-08-21T12:27:34.194Z,15.55
2022-08-21T12:30:10.250Z,20.17
2022-08-21T12:32:49.459Z,15.00
2022-08-21T12:35:25.842Z,19.10
2022-08-21T12:38:01.564Z,19.17
2022-08-21T12:40:41.453Z,18.65
2022-08-21T12:43:16.885Z,19.52
2022-08-21T12:45:49.810Z,16.83
2022-08-21T12:48:40.482Z,21.25
2022-08-21T12:51:19.516Z,21.65
2022-08-21T12:53:55.001Z,19.92
2022-08-21T12:56:43.303Z,22.98
2022-08-21T12:59:16.203Z,19.27
2022-08-21T13:01:51.439Z,20.55
2022-08-21T13:04:44.197Z,22.58
2022-08-21T13:07:21.043Z,24.40
2022-08-21T13:09:52.866Z,23.90
2022-08-21T13:12:32.268Z,19.83
2022-08-21T13:15:08.328Z,20.95
2022-08-21T13:17:42.511Z,26.17
2022-08-21T13:20:21.814Z,26.95
2022-08-21T13:22:52.669Z,26.65
2022-08-21T13:25:24.773Z,23.60
2022-08-21T13:28:03.074Z,23.25
2022-08-21T13:30:33.701Z,22.80
2022-08-21T13:33:12.316Z,27.23
2022-08-21T13:36:04.032Z,27.02
2022-08-21T13:38:36.288Z,25.10
2022-08-21T13:41:26.081Z,26.73
2022-08-21T13:44:04.577Z,26.63
2022-08-21T13:46:37.932Z,25.33
2022-08-21T13:49:09.949Z,23.75
2022-08-21T13:51:40.878Z,23.30
2022-08-21T13:54:33.447Z,33.95
2022-08-21T13:57:04.411Z,35.30
2022-08-21T13:59:36.756Z,20.70
2022-08-21T14:02:24.539Z,23.63
2022-08-21T14:04:59.743Z,17.65
2022-08-21T14:07:40.103Z,16.15
2022-08-21T14:10:20.993Z,19.70
2022-08-21T14:13:06.179Z,18.13
2022-08-21T14:15:41.491Z,27.95
2022-08-21T14:18:22.456Z,19.65
2022-08-21T14:20:53.557Z,18.65
2022-08-21T14:23:32.682Z,15.77
2022-08-21T14:26:09.191Z,17.65
2022-08-21T14:28:44.666Z,19.67
2022-08-21T14:31:23.378Z,17.90
2022-08-21T14:33:54.132Z,19.42
2022-08-21T14:36:24.686Z,23.58
2022-08-21T14:38:55.329Z,24.10
2022-08-21T14:41:30.093Z,23.02
2022-08-21T14:44:08.211Z,20.85
2022-08-21T14:46:56.023Z,22.25
2022-08-21T14:49:29.220Z,21.88
2022-08-21T14:52:01.161Z,16.98
2022-08-21T14:54:35.273Z,21.17
2022-08-21T14:57:11.420Z,22.23
2022-08-21T14:59:42.576Z,16.98
2022-08-21T15:02:13.958Z,21.33
2022-08-21T15:04:45.038Z,27.52
2022-08-21T15:07:15.605Z,31.25
2022-08-21T15:09:47.634Z,24.95
2022-08-21T15:12:18.974Z,20.83
2022-08-21T15:14:52.533Z,19.40
2022-08-21T15:17:23.637Z,21.20
2022-08-21T15:19:54.262Z,19.23
2022-08-21T15:22:27.892Z,20.23
2022-08-21T15:24:58.867Z,18.83
2022-08-21T15:27:30.414Z,18.02
2022-08-21T15:30:01.192Z,15.93
2022-08-21T15:36:39.785Z,14.93
2022-08-21T15:39:14.251Z,15.85
2022-08-21T15:41:44.678Z,14.32
2022-08-21T15:44:16.396Z,15.50
2022-08-21T15:46:48.373Z,14.75
2022-08-21T15:49:21.306Z,16.05
2022-08-21T15:51:53.841Z,15.60
2022-08-21T15:54:24.251Z,17.27
2022-08-21T15:56:57.389Z,18.08
2022-08-21T15:59:32.345Z,16.52
2022-08-21T16:02:02.948Z,14.60
2022-08-21T16:04:33.370Z,14.70
2022-08-21T16:07:07.795Z,16.88
2022-08-21T16:09:39.848Z,13.45
2022-08-21T16:12:11.743Z,12.35
2022-08-21T16:14:43.836Z,14.35
2022-08-21T16:17:14.533Z,12.23
2022-08-21T16:19:45.331Z,14.68
2022-08-21T16:22:16.285Z,11.88
2022-08-21T16:24:46.763Z,10.02
2022-08-21T16:27:19.130Z,10.85
2022-08-21T16:29:52.364Z,9.73
2022-08-21T16:32:22.966Z,9.85
2022-08-21T16:34:53.584Z,9.88
2022-08-21T16:37:25.028Z,9.77
2022-08-21T16:39:55.732Z,8.05
2022-08-21T16:42:29.896Z,9.90
2022-08-21T16:45:01.136Z,10.63
2022-08-21T16:47:31.454Z,10.73
2022-08-21T16:50:04.090Z,11.52
2022-08-21T16:52:34.713Z,14.10
2022-08-21T16:55:06.961Z,26.13
2022-08-21T16:57:39.729Z,20.77
2022-08-21T17:00:13.760Z,24.63
2022-08-21T17:02:49.955Z,17.85
2022-08-21T17:05:20.694Z,17.88
2022-08-21T17:07:51.077Z,19.58
2022-08-21T17:10:21.762Z,19.38
2022-08-21T17:12:57.522Z,19.30
2022-08-21T17:15:30.514Z,19.67
2022-08-21T17:18:01.381Z,20.88
2022-08-21T17:20:32.947Z,21.98
2022-08-21T17:23:03.208Z,21.23
2022-08-21T17:25:33.811Z,25.08
2022-08-21T17:28:04.163Z,26.65
2022-08-21T17:30:34.663Z,26.17
2022-08-21T17:33:04.789Z,26.27
2022-08-21T17:35:34.738Z,25.70
2022-08-21T17:38:05.361Z,26.25
2022-08-21T17:40:36.937Z,27.15
2022-08-21T17:43:11.097Z,29.35
2022-08-21T17:45:44.847Z,30.05
2022-08-21T17:48:15.627Z,26.88
2022-08-21T17:50:45.866Z,23.10
2022-08-21T17:53:16.218Z,20.92
2022-08-21T17:55:46.988Z,21.73
2022-08-21T17:58:17.892Z,23.13
2022-08-21T18:00:49.534Z,21.83
2022-08-21T18:03:22.378Z,23.48
2022-08-21T18:05:57.147Z,21.45
2022-08-21T18:08:27.535Z,21.75
2022-08-21T18:10:59.627Z,22.77
2022-08-21T18:13:32.723Z,22.25
2022-08-21T18:16:03.764Z,22.83
2022-08-21T18:18:39.415Z,23.27
2022-08-21T18:21:09.908Z,22.52
2022-08-21T18:23:44.315Z,23.48
2022-08-21T18:26:22.411Z,24.25
2022-08-21T18:28:52.847Z,23.33
2022-08-21T18:31:23.433Z,22.25
2022-08-21T18:33:57.945Z,21.45
2022-08-21T18:36:30.291Z,20.35
2022-08-21T18:39:19.508Z,19.48
2022-08-21T18:41:52.247Z,19.02
2022-08-21T18:44:24.761Z,18.30
2022-08-21T18:46:59.375Z,18.48
2022-08-21T18:49:30.464Z,17.98
2022-08-21T18:52:03.238Z,18.05
2022-08-21T18:54:33.506Z,16.23
2022-08-21T18:59:59.261Z,18.08
2022-08-21T19:02:31.609Z,18.67
2022-08-21T19:05:04.359Z,17.80
2022-08-21T19:07:34.508Z,17.80
2022-08-21T19:10:28.033Z,18.70
2022-08-21T19:12:56.320Z,19.67
2022-08-21T19:15:26.694Z,18.38
2022-08-21T19:17:57.357Z,18.92
2022-08-21T19:20:34.189Z,17.88
2022-08-21T19:23:05.238Z,17.23
2022-08-21T19:25:36.399Z,18.95
2022-08-21T19:28:11.565Z,18.95
2022-08-21T19:33:39.446Z,17.38
2022-08-21T19:36:10.875Z,16.73
2022-08-21T19:38:41.851Z,17.35
2022-08-21T19:41:12.942Z,16.75
2022-08-21T19:43:45.710Z,16.92
2022-08-21T19:46:18.655Z,18.63
2022-08-21T19:48:49.418Z,17.90
2022-08-21T19:51:19.678Z,17.27
2022-08-21T19:53:53.802Z,16.80
2022-08-21T19:56:28.519Z,16.73
2022-08-21T19:58:59.273Z,16.80
2022-08-21T20:01:30.658Z,15.93
2022-08-21T20:04:02.374Z,16.92
2022-08-21T20:06:33.014Z,17.08
2022-08-21T20:09:03.194Z,16.50
2022-08-21T20:11:42.944Z,17.02
2022-08-21T20:14:14.522Z,16.27
2022-08-21T20:16:45.865Z,18.35
2022-08-21T20:19:16.227Z,17.55
2022-08-21T20:21:48.879Z,16.23
2022-08-21T20:24:19.568Z,17.80
2022-08-21T20:26:50.032Z,17.40
2022-08-21T20:29:24.532Z,16.45
2022-08-21T20:32:12.477Z,17.30
2022-08-21T20:34:45.182Z,16.40
2022-08-21T20:40:09.587Z,16.45
2022-08-21T20:42:40.781Z,16.20
2022-08-21T20:45:12.144Z,16.95
2022-08-21T20:47:42.475Z,17.50
2022-08-21T20:50:14.608Z,17.67
2022-08-21T20:52:44.736Z,17.95
2022-08-21T20:55:16.889Z,18.63
2022-08-21T20:58:04.351Z,18.77
2022-08-21T21:00:37.396Z,19.30
2022-08-21T21:03:16.546Z,17.38
2022-08-21T21:06:03.422Z,18.02
2022-08-21T21:08:49.732Z,17.58
2022-08-21T21:11:23.278Z,17.92
2022-08-21T21:14:03.261Z,20.20
2022-08-21T21:16:42.490Z,18.13
2022-08-21T21:19:26.192Z,19.48
2022-08-21T21:22:16.183Z,20.75
2022-08-21T21:25:00.040Z,19.48
2022-08-21T21:27:42.076Z,20.63
2022-08-21T21:30:21.005Z,19.90
2022-08-21T21:32:51.491Z,20.00
2022-08-21T21:38:26.091Z,20.42
2022-08-21T21:41:08.762Z,21.30
2022-08-21T21:43:46.819Z,21.75
2022-08-21T21:46:24.274Z,21.15
2022-08-21T21:49:14.038Z,22.52
2022-08-21T21:51:59.645Z,24.52
2022-08-21T21:54:47.369Z,21.85
2022-08-21T21:57:37.411Z,21.80
2022-08-21T22:00:27.200Z,22.70
2022-08-21T22:03:16.892Z,23.33
2022-08-21T22:09:16.622Z,33.70
2022-08-21T22:12:07.854Z,35.42
2022-08-21T22:14:41.592Z,29.90
2022-08-21T22:17:31.322Z,24.30
2022-08-21T22:20:03.656Z,32.03
2022-08-21T22:22:35.129Z,33.63
2022-08-21T22:25:10.945Z,34.92
2022-08-21T22:27:41.263Z,34.88
2022-08-21T22:30:13.217Z,24.13
2022-08-21T22:32:48.517Z,25.42
2022-08-21T22:35:31.632Z,25.02
2022-08-21T22:38:03.001Z,25.98
2022-08-21T22:40:34.954Z,27.42
2022-08-21T22:43:07.850Z,26.40
2022-08-21T22:45:58.962Z,33.88
2022-08-21T22:48:32.064Z,27.70
2022-08-21T22:51:13.011Z,27.33
2022-08-21T22:53:44.714Z,28.38
2022-08-21T22:56:29.694Z,30.75
2022-08-21T22:59:01.691Z,33.80
2022-08-21T23:01:34.880Z,29.10
2022-08-21T23:04:24.869Z,28.23
2022-08-21T23:06:59.732Z,28.15
2022-08-21T23:09:39.365Z,27.75
2022-08-21T23:18:17.171Z,31.83
2022-08-21T23:24:00.817Z,28.98
2022-08-21T23:26:35.842Z,32.90
2022-08-21T23:29:26.190Z,34.75
2022-08-21T23:32:15.842Z,33.05
2022-08-21T23:34:56.921Z,32.40
2022-08-21T23:37:51.507Z,38.15
2022-08-21T23:40:27.878Z,67.05
2022-08-21T23:43:05.542Z,59.15
2022-08-21T23:45:48.906Z,54.08
2022-08-21T23:48:39.491Z,45.30
2022-08-21T23:51:17.523Z,57.28
2022-08-21T23:53:54.133Z,45.80
2022-08-21T23:56:30.012Z,36.20
2022-08-21T23:59:22.235Z,29.20
